• Join FlightAware (Why Join?)
  • Login
  • US Flag 
09:27PM EDT


 

Airport Tracker/Info


-or-


 

Live Flight TrackerFlight Track Log ✈ UAL252 ✈ 07-Aug-2013 ✈ KSFO - KCLE

Flight Track Log - Related Links

Times and Time Zones

All times are in EDT time to prevent confusion due to time zone crossing. See the UAL252 flight status page for this flight to view local times or setup timezone preferences in your user account.

Time Position Orientation Groundspeed Altitude Reporting Facility
EDT Latitude Longitude Course Direction KTS MPH feet Rate Location/Type
08:01PM 37.6333 -122.3500 71° East 162 186 1,000  Level Northern Cal TRACON
08:02PM 37.6833 -122.3000 38° Northeast 240 276 2,800 2,280 Climbing Northern Cal TRACON
08:03PM 37.7333 -122.2167 53° Northeast 342 394 5,800 2,400 Climbing Northern Cal TRACON
08:04PM 37.6978 -122.1054 63° Northeast  Level FlightAware Approximate
08:05PM 37.7510 -121.9529 65° Northeast  Level FlightAware Approximate
08:05PM 37.8500 -122.0667 45° Northeast 336 387 10,000  Level Northern Cal TRACON
08:06PM 37.8018 -121.7992 71° East  Level FlightAware Approximate
08:06PM 37.8853 -121.9281 72° East 383 441 12,200  Level Oakland Center
08:07PM 37.9114 -121.7989 76° East 380 437 14,600 2,100 Climbing Oakland Center
08:08PM 37.9397 -121.6619 75° East 399 459 16,600 2,040 Climbing Oakland Center
08:09PM 37.9756 -121.4933 75° East 413 475 18,800 1,800 Climbing Oakland Center
08:10PM 38.0003 -121.3697 76° East 423 487 20,300 1,620 Climbing Oakland Center
08:11PM 38.0369 -121.1889 76° East 443 510 22,200 1,620 Climbing Oakland Center
08:12PM 38.0686 -121.0344 75° East 454 522 23,700 1,260 Climbing Oakland Center
08:13PM 38.1042 -120.8781 74° East 465 535 24,800 1,140 Climbing Oakland Center
08:14PM 38.1433 -120.7158 73° East 481 554 26,100 1,260 Climbing Oakland Center
08:15PM 38.1833 -120.5506 73° East 491 565 27,400 1,140 Climbing Oakland Center
08:16PM 38.2219 -120.3847 73° East 492 566 28,500 1,140 Climbing Oakland Center
08:17PM 38.2611 -120.2167 73° East 496 571 29,800 1,380 Climbing Oakland Center
08:18PM 38.3094 -120.0172 73° East 491 565 31,400 1,200 Climbing Oakland Center
08:20PM 38.3683 -119.7553 74° East 490 564 33,100 960 Climbing Salt Lake Center
08:21PM 38.4075 -119.5900 73° East 489 563 34,100 1,080 Climbing Salt Lake Center
08:22PM 38.4444 -119.4258 74° East 484 557 35,400 900 Climbing Salt Lake Center
08:23PM 38.4822 -119.2619 74° East 483 556 36,000 720 Climbing Salt Lake Center
08:24PM 38.5139 -119.0633 78° East 480 552 36,900 360 Climbing Salt Lake Center
08:25PM 38.5372 -118.8333 83° East 469 540 37,000  Climbing Oakland Center
08:26PM 38.5531 -118.6694 83° East 469 540 37,000  Level Oakland Center
08:27PM 38.5700 -118.5006 83° East 479 551 37,100  Climbing Oakland Center
08:28PM 38.5861 -118.3319 83° East 481 554 37,000 -60 Descending Oakland Center
08:29PM 38.6017 -118.1658 83° East 476 548 37,000  Level Oakland Center
08:30PM 38.6169 -118.0008 83° East 472 543 37,000  Level Oakland Center
08:31PM 38.6325 -117.8314 83° East 475 547 37,000  Level Oakland Center
08:32PM 38.6475 -117.6633 83° East 474 545 37,000  Level Oakland Center
08:33PM 38.6594 -117.5289 83° East 474 545 37,000  Level Salt Lake Center
08:34PM 38.6742 -117.3622 83° East 471 542 37,000  Level Salt Lake Center
08:35PM 38.6944 -117.1939 81° East 474 545 37,000  Level Salt Lake Center
08:36PM 38.7197 -117.0272 79° East 475 547 37,000  Level Salt Lake Center
08:37PM 38.7564 -116.8628 74° East 478 550 37,000  Level Salt Lake Center
08:38PM 38.8025 -116.6664 73° East 478 550 37,000  Level Salt Lake Center
08:39PM 38.8425 -116.5031 72° East 480 552 37,000  Level Salt Lake Center
08:40PM 38.8800 -116.3403 73° East 477 549 37,000  Level Salt Lake Center
08:41PM 38.9181 -116.1769 73° East 478 550 37,000  Level Salt Lake Center
08:42PM 38.9558 -116.0161 73° East 472 543 37,000  Level Salt Lake Center
08:43PM 38.9925 -115.8558 74° East 470 541 37,000  Level Salt Lake Center
08:44PM 39.0292 -115.6944 74° East 469 540 37,000  Level Salt Lake Center
08:46PM 39.0906 -115.5128 66° East 471 542 37,000  Level Salt Lake Center
08:47PM 39.1481 -115.3664 63° Northeast 464 534 37,000  Level Salt Lake Center
08:48PM 39.2064 -115.2222 62° Northeast 470 541 37,000  Level Salt Lake Center
08:49PM 39.2711 -115.0564 63° Northeast 468 539 37,000  Level Salt Lake Center
08:50PM 39.3281 -114.9133 63° Northeast 467 537 37,000  Level Salt Lake Center
08:51PM 39.3933 -114.7472 63° Northeast 467 537 37,000  Level Salt Lake Center
08:52PM 39.4519 -114.6036 62° Northeast 472 543 37,000  Level Salt Lake Center
08:53PM 39.5061 -114.4294 68° East 468 539 37,000  Level Salt Lake Center
08:54PM 39.5328 -114.2656 78° East 466 536 37,000  Level Salt Lake Center
08:55PM 39.5597 -114.1036 78° East 461 531 37,000  Level Salt Lake Center
08:56PM 39.5869 -113.9403 78° East 463 533 37,000  Level Salt Lake Center
08:57PM 39.6147 -113.7769 78° East 464 534 37,000  Level Salt Lake Center
08:58PM 39.6408 -113.6114 78° East 467 537 37,000  Level Salt Lake Center
08:59PM 39.6667 -113.4478 78° East 465 535 37,000  Level Salt Lake Center
09:00PM 39.6992 -113.2486 78° East 469 540 37,000  Level Salt Lake Center
09:01PM 39.7247 -113.0822 79° East 470 541 37,000  Level Salt Lake Center
09:02PM 39.7519 -112.9181 78° East 466 536 37,000  Level Salt Lake Center
09:03PM 39.7758 -112.7644 79° East 465 535 37,000  Level Salt Lake Center
09:04PM 39.8008 -112.5981 79° East 470 541 37,000  Level Salt Lake Center
09:05PM 39.8306 -112.3983 79° East 472 543 37,000  Level Salt Lake Center
09:06PM 39.8558 -112.2319 79° East 473 544 37,000  Level Salt Lake Center
09:07PM 39.8803 -112.0644 79° East 475 547 37,000  Level Salt Lake Center
09:08PM 39.9053 -111.8958 79° East 477 549 37,000  Level Salt Lake Center
09:09PM 39.9286 -111.7281 80° East 476 548 37,000  Level Salt Lake Center
09:10PM 39.9544 -111.5425 80° East 477 549 37,000  Level Salt Lake Center
09:11PM 39.9789 -111.3825 79° East 473 544 37,000  Level Salt Lake Center
09:12PM 40.0050 -111.1956 80° East 467 537 37,000  Level Salt Lake Center
09:13PM 40.0278 -111.0328 80° East 474 545 37,000  Level Salt Lake Center
09:14PM 40.0556 -110.8425 79° East 478 550 37,000  Level Salt Lake Center
09:15PM 40.0767 -110.6786 80° East 478 550 37,000  Level Salt Lake Center
09:16PM 40.1011 -110.4861 81° East 481 554 37,000  Level Salt Lake Center
09:17PM 40.1317 -110.3242 76° East 481 554 37,000  Level Salt Lake Center
09:18PM 40.1642 -110.1608 75° East 485 558 37,000  Level Salt Lake Center
09:19PM 40.2019 -109.9697 75° East 485 558 37,000  Level Salt Lake Center
09:21PM 40.2325 -109.8064 76° East 484 557 37,000  Level Salt Lake Center
09:22PM 40.2692 -109.6150 76° East 484 557 37,000  Level Salt Lake Center
09:23PM 40.3003 -109.4500 76° East 486 559 37,000  Level Salt Lake Center
09:24PM 40.3308 -109.2847 76° East 487 560 37,000  Level Salt Lake Center
09:25PM 40.3669 -109.0903 76° East 489 563 37,000  Level Salt Lake Center
09:26PM 40.3983 -108.9247 76° East 488 562 37,000  Level Salt Lake Center
09:27PM 40.4319 -108.7364 77° East 492 566 37,000  Level Salt Lake Center
09:28PM 40.4617 -108.5692 77° East 493 567 37,000  Level Salt Lake Center
09:28PM 40.4900 -108.4144 76° East 498 573 37,000  Level Denver Center
09:30PM 40.5194 -108.2444 77° East 497 572 37,000  Level Denver Center
09:31PM 40.5494 -108.0744 77° East 499 574 37,000  Level Denver Center
09:32PM 40.5836 -107.8775 77° East 495 570 37,000  Level Denver Center
09:33PM 40.6181 -107.6789 77° East 498 573 37,000  Level Denver Center
09:34PM 40.6472 -107.5069 77° East 501 577 37,000  Level Denver Center
09:35PM 40.6808 -107.3081 77° East 500 575 37,000  Level Denver Center
09:36PM 40.7086 -107.1431 77° East 502 578 37,000  Level Denver Center
09:37PM 40.7386 -106.9633 78° East 502 578 37,000  Level Denver Center
09:38PM 40.7669 -106.7817 78° East 500 575 37,000  Level Denver Center
09:39PM 40.8003 -106.5806 78° East 501 577 37,000  Level Denver Center
09:40PM 40.8261 -106.4075 79° East 502 578 37,000  Level Denver Center
09:41PM 40.8589 -106.2053 78° East 503 579 37,000  Level Denver Center
09:42PM 40.8864 -106.0353 78° East 503 579 37,000  Level Denver Center
09:43PM 40.9139 -105.8536 79° East 503 579 37,000  Level Denver Center
09:44PM 40.9422 -105.6717 78° East 506 582 37,000  Level Denver Center
09:45PM 40.9703 -105.4886 78° East 508 585 37,000  Level Denver Center
09:46PM 41.0025 -105.2669 79° East 510 587 37,000  Level Denver Center
09:47PM 41.0264 -105.0900 80° East 510 587 37,000  Level Denver Center
09:48PM 41.0575 -104.8867 78° East 509 586 37,000  Level Denver Center
09:49PM 41.0825 -104.7122 79° East 505 581 37,000  Level Denver Center
09:50PM 41.1117 -104.5061 79° East 509 586 37,000  Level Denver Center
09:51PM 41.1361 -104.3358 79° East 496 571 37,000  Level Denver Center
09:52PM 41.1639 -104.1308 80° East 505 581 37,000  Level Denver Center
09:53PM 41.1886 -103.9550 79° East 508 585 37,000  Level Denver Center
09:54PM 41.2156 -103.7494 80° East 508 585 37,000  Level Denver Center
09:55PM 41.2400 -103.5744 79° East 506 582 37,000  Level Denver Center
09:56PM 41.2661 -103.3689 80° East 507 583 37,000  Level Denver Center
09:57PM 41.2897 -103.1936 80° East 506 582 37,000  Level Denver Center
09:58PM 41.3156 -102.9881 80° East 505 581 37,000  Level Denver Center
09:59PM 41.3383 -102.8092 80° East 513 590 37,000  Level Denver Center
10:00PM 41.3578 -102.6589 80° East 516 594 37,000  Level Denver Center
10:01PM 41.3808 -102.4658 81° East 519 597 37,000  Level Denver Center
10:03PM 41.4108 -102.2197 81° East 527 606 37,000  Level Denver Center
10:04PM 41.4331 -102.0350 81° East 528 608 37,000  Level Denver Center
10:05PM 41.4581 -101.8181 81° East 530 610 37,000  Level Denver Center
10:06PM 41.4803 -101.6317 81° East 530 610 37,000  Level Denver Center
10:07PM 41.5053 -101.4128 81° East 532 612 37,000  Level Denver Center
10:08PM 41.5261 -101.2253 81° East 533 613 37,000  Level Denver Center
10:09PM 41.5514 -101.0047 81° East 535 616 37,000  Level Denver Center
10:10PM 41.5725 -100.8133 82° East 540 621 37,000  Level Denver Center
10:11PM 41.5931 -100.6211 82° East 542 624 37,000  Level Denver Center
10:12PM 41.6164 -100.3961 82° East 547 629 37,000  Level Denver Center
10:13PM 41.6367 -100.2039 82° East 546 628 37,000  Level Denver Center
10:14PM 41.6586 -99.9781 83° East 546 628 37,000  Level Denver Center
10:15PM 41.6786 -99.7858 82° East 546 628 37,000  Level Denver Center
10:16PM 41.6981 -99.5728 83° East 547 629 37,000  Level Denver Center
10:17PM 41.7186 -99.3719 82° East 544 626 37,000  Level Denver Center
10:18PM 41.7369 -99.1719 83° East 539 620 37,000  Level Denver Center
10:19PM 41.7536 -98.9747 83° East 533 613 37,000 -60 Level Denver Center
10:20PM 41.7758 -98.7372 83° East 531 611 36,900  Descending Denver Center
10:21PM 41.7889 -98.5783 84° East 532 612 37,000 420 Climbing Denver Center
10:23PM 41.8178 -98.2575 83° East 540 621 37,900 840 Climbing Minneapolis Center
10:24PM 41.8336 -98.0656 84° East 539 620 39,000 480 Climbing Minneapolis Center
10:25PM 41.8503 -97.8692 83° East 532 612 39,000  Level Minneapolis Center
10:26PM 41.8667 -97.6736 84° East 529 609 39,000  Level Minneapolis Center
10:27PM 41.8808 -97.4769 84° East 529 609 39,000  Level Minneapolis Center
10:28PM 41.8967 -97.2778 84° East 533 613 39,000  Level Minneapolis Center
10:29PM 41.9122 -97.0789 84° East 535 616 39,000  Level Minneapolis Center
10:30PM 41.9261 -96.8806 85° East 534 615 39,000  Level Minneapolis Center
10:31PM 41.9408 -96.6800 84° East 535 616 39,000  Level Minneapolis Center
10:32PM 41.9569 -96.4400 85° East 535 616 39,000  Level Minneapolis Center
10:33PM 41.9694 -96.2414 85° East 532 612 39,000  Level Minneapolis Center
10:34PM 41.9861 -96.0011 85° East 533 613 39,000  Level Minneapolis Center
10:35PM 41.9986 -95.8014 85° East 532 612 39,000  Level Minneapolis Center
10:36PM 42.0103 -95.6033 85° East 531 611 39,000  Level Minneapolis Center
10:37PM 42.0225 -95.4044 85° East 532 612 39,000  Level Minneapolis Center
10:38PM 42.0356 -95.1650 86° East 533 613 39,000  Level Minneapolis Center
10:39PM 42.0475 -94.9664 85° East 532 612 39,000  Level Minneapolis Center
10:40PM 42.0581 -94.7656 86° East 537 618 39,000  Level Minneapolis Center
10:41PM 42.0675 -94.5669 86° East 534 615 39,000  Level Minneapolis Center
10:42PM 42.0781 -94.3686 86° East 532 612 39,000  Level Minneapolis Center
10:43PM 42.0892 -94.1297 86° East 532 612 39,000  Level Minneapolis Center
10:44PM 42.0994 -93.9322 86° East 530 610 39,000  Level Minneapolis Center
10:45PM 42.1083 -93.7478 86° East 532 612 39,000  Level Minneapolis Center
10:46PM 42.1169 -93.5522 87° East 531 611 39,000  Level Minneapolis Center
10:48PM 42.1269 -93.3536 86° East 535 616 39,000  Level Minneapolis Center
10:49PM 42.1347 -93.1161 87° East 536 617 39,000  Level Minneapolis Center
10:50PM 42.1422 -92.9153 87° East 540 621 39,000  Level Minneapolis Center
10:51PM 42.1492 -92.7158 87° East 542 624 39,000  Level Minneapolis Center
10:52PM 42.1572 -92.5164 87° East 541 623 39,000  Level Minneapolis Center
10:53PM 42.1633 -92.3178 88° East 539 620 39,000  Level Minneapolis Center
10:54PM 42.1689 -92.1161 88° East 542 624 39,000  Level Minneapolis Center
10:55PM 42.1764 -91.8758 88° East 544 626 39,000  Level Minneapolis Center
10:56PM 42.1817 -91.6742 88° East 546 628 39,000  Level Minneapolis Center
10:57PM 42.1869 -91.4744 88° East 545 627 39,000  Level Minneapolis Center
10:58PM 42.1922 -91.2831 88° East 543 625 39,000  Level Minneapolis Center
10:59PM 42.1961 -91.0750 88° East 542 624 39,000  Level Minneapolis Center
11:00PM 42.2017 -90.7578 89° East 539 620 39,000  Level Chicago Center
11:01PM 42.2056 -90.5572 88° East 543 625 39,000  Level Chicago Center
11:02PM 42.2094 -90.3553 88° East 545 627 39,000  Level Chicago Center
11:03PM 42.2136 -90.1542 88° East 544 626 39,000  Level Chicago Center
11:04PM 42.2147 -89.9531 90° East 543 625 39,000  Level Chicago Center
11:05PM 42.2153 -89.7125 90° East 542 624 39,000  Level Chicago Center
11:06PM 42.2189 -89.5131 89° East 538 619 39,000  Level Chicago Center
11:07PM 42.2194 -89.3108 90° East 540 621 39,000  Level Chicago Center
11:08PM 42.2183 -89.1108 90° East 537 618 39,000  Level Chicago Center
11:09PM 42.2178 -88.9097 90° East 536 617 39,000  Level Chicago Center
11:10PM 42.2156 -88.7000 91° East 538 619 39,000  Level Chicago Center
11:11PM 42.2136 -88.5008 91° East 536 617 39,000  Level Chicago Center
11:12PM 42.2119 -88.2953 91° East 543 625 39,000  Level Chicago Center
11:14PM 42.2086 -88.0936 91° East 539 620 39,000 -120 Level Chicago Center
11:15PM 42.2058 -87.8931 91° East 537 618 38,800 -540 Descending Chicago Center
11:16PM 42.2017 -87.6892 92° East 542 624 37,900 -1,080 Descending Chicago Center
11:17PM 42.1975 -87.4450 91° East 544 626 36,700 -1,080 Descending Chicago Center
11:18PM 42.1933 -87.2433 92° East 540 621 35,700 -840 Descending Chicago Center
11:19PM 42.1881 -87.0417 92° East 539 620 35,000 -360 Descending Chicago Center
11:20PM 42.1844 -86.8408 91° East 538 619 35,000  Level Chicago Center
11:21PM 42.1783 -86.6497 92° East 542 624 35,000 -120 Level Chicago Center
11:22PM 42.1728 -86.4475 92° East 542 624 34,800 -600 Descending Chicago Center
11:23PM 42.1667 -86.2458 92° East 539 620 33,800 -900 Descending Chicago Center
11:24PM 42.1606 -86.0447 92° East 537 618 33,000 -420 Descending Chicago Center
11:25PM 42.1528 -85.8200 93° East 538 619 33,000  Level Chicago Center
11:26PM 42.1461 -85.6175 92° East 545 627 33,000  Level Chicago Center
11:27PM 42.1369 -85.4175 93° East 543 625 33,000  Level Chicago Center
11:28PM 42.1297 -85.2147 93° East 544 626 33,000  Level Chicago Center
11:29PM 42.1222 -84.9675 92° East 552 635 33,000 -240 Level Chicago Center
11:30PM 42.1142 -84.7636 93° East 550 633 32,600 -1,560 Descending Chicago Center
11:31PM 42.0772 -84.5711 104° East 538 619 29,900 -2,460 Descending Chicago Center
11:32PM 42.0344 -84.3836 107° East 527 606 27,600 -1,740 Descending Chicago Center
11:33PM 41.9925 -84.1994 107° East 519 597 26,400 -1,140 Descending Chicago Center
11:34PM 41.9503 -84.0203 108° East 508 585 25,300 -1,200 Descending Chicago Center
11:35PM 41.9014 -83.8278 109° East 501 577 24,000 -960 Descending Cleveland Center
11:36PM 41.8661 -83.6756 107° East 489 563 23,400 -1,020 Descending Cleveland Center
11:37PM 41.8247 -83.5092 108° East 479 551 22,000 -1,440 Descending Cleveland Center
11:38PM 41.7889 -83.3514 107° East 459 528 20,600 -1,440 Descending Cleveland Center
11:39PM 41.7489 -83.1967 109° East 448 516 19,200 -840 Descending Cleveland Center
11:40PM 41.7106 -83.0392 108° East 442 509 19,000 -900 Descending Cleveland Center
11:41PM 41.6761 -82.8878 107° East 437 503 17,500 -2,040 Descending Cleveland Center
11:42PM 41.6372 -82.7447 110° East 417 480 15,300 -1,980 Descending Cleveland Center
11:43PM 41.6025 -82.5964 107° East 375 432 13,700 -2,220 Descending Cleveland Center
11:44PM 41.5694 -82.4567 108° East 401 461 10,700 -1,860 Descending Cleveland Center
11:45PM 41.5444 -82.3283 105° East 352 405 10,000 -720 Descending Cleveland Center
11:46PM 41.5542 -82.2175 83° East 322 371 9,300 -1,140 Descending Cleveland Center
11:47PM 41.5642 -82.1094 83° East 302 348 7,800 -1,560 Descending Cleveland Center
11:48PM 41.5761 -81.9903 82° East 292 336 6,200 -1,440 Descending Cleveland Center
11:49PM 41.5878 -81.8853 82° East 292 336 5,000 -1,080 Descending Cleveland Center
11:50PM 41.5553 -81.8042 118° Southeast 249 287 4,100 -660 Descending Cleveland Center
11:51PM 41.5100 -81.7506 138° Southeast 230 265 3,700 -840 Descending Cleveland Center
11:52PM 41.4661 -81.7497 179° South 154 177 2,400 -960 Descending Cleveland Center
11:53PM 41.4492 -81.7936 243° Southwest 143 165 1,800 -660 Descending Cleveland Center
11:54PM 41.4258 -81.8319 231° Southwest 151 174 1,100 -720 Descending Cleveland Center